createdAt,value
2022-09-06T00:01:39.883Z,1.48
2022-09-06T00:04:42.911Z,1.37
2022-09-06T00:07:45.737Z,0.80
2022-09-06T00:10:48.691Z,0.88
2022-09-06T00:13:51.342Z,1.00
2022-09-06T00:16:54.388Z,0.70
2022-09-06T00:19:57.043Z,0.82
2022-09-06T00:23:01.870Z,0.50
2022-09-06T00:26:05.431Z,0.68
2022-09-06T00:29:08.400Z,0.73
2022-09-06T00:32:11.081Z,0.95
2022-09-06T00:35:14.088Z,0.90
2022-09-06T00:38:16.868Z,0.90
2022-09-06T00:41:20.174Z,0.50
2022-09-06T00:44:22.854Z,0.60
2022-09-06T00:47:27.567Z,0.60
2022-09-06T00:50:30.821Z,0.50
2022-09-06T00:53:33.971Z,0.57
2022-09-06T00:56:41.099Z,0.82
2022-09-06T00:59:46.291Z,0.80
2022-09-06T01:02:49.604Z,0.77
2022-09-06T01:06:07.761Z,0.80
2022-09-06T01:09:32.176Z,0.70
2022-09-06T01:12:58.602Z,0.93
2022-09-06T01:16:27.774Z,0.77
2022-09-06T01:20:01.360Z,0.60
2022-09-06T01:23:37.908Z,0.60
2022-09-06T01:26:59.324Z,0.82
2022-09-06T01:30:10.202Z,0.70
2022-09-06T01:33:43.604Z,0.83
2022-09-06T01:37:09.061Z,0.82
2022-09-06T01:40:12.731Z,0.40
2022-09-06T01:43:23.995Z,0.50
2022-09-06T01:47:09.952Z,1.00
2022-09-06T01:50:27.473Z,0.80
2022-09-06T01:53:33.384Z,0.43
2022-09-06T01:56:39.016Z,1.17
2022-09-06T02:00:04.746Z,0.90
2022-09-06T02:03:43.526Z,0.70
2022-09-06T02:06:54.749Z,1.07
2022-09-06T02:10:07.417Z,0.50
2022-09-06T02:13:12.591Z,0.52
2022-09-06T02:16:23.473Z,0.85
2022-09-06T02:19:47.844Z,1.10
2022-09-06T02:22:56.417Z,0.80
2022-09-06T02:26:05.561Z,0.47
2022-09-06T02:29:08.607Z,0.60
2022-09-06T02:32:17.497Z,1.65
2022-09-06T02:35:20.316Z,0.88
2022-09-06T02:38:26.923Z,0.90
2022-09-06T02:41:31.129Z,0.82
2022-09-06T02:44:34.139Z,0.82
2022-09-06T02:47:36.889Z,0.70
2022-09-06T02:50:39.990Z,0.80
2022-09-06T02:53:43.051Z,0.77
2022-09-06T02:56:50.207Z,0.93
2022-09-06T02:59:54.754Z,1.45
2022-09-06T03:02:58.021Z,0.55
2022-09-06T03:06:00.684Z,0.50
2022-09-06T03:09:03.907Z,0.40
2022-09-06T03:12:07.059Z,0.50
2022-09-06T03:15:11.338Z,0.60
2022-09-06T03:18:14.852Z,0.60
2022-09-06T03:21:17.816Z,0.65
2022-09-06T03:24:20.424Z,1.20
2022-09-06T03:27:24.362Z,1.00
2022-09-06T03:30:27.328Z,0.62
2022-09-06T03:33:31.055Z,0.70
2022-09-06T03:36:33.737Z,0.52
2022-09-06T03:39:36.934Z,0.80
2022-09-06T03:42:39.631Z,0.50
2022-09-06T03:45:46.828Z,1.12
2022-09-06T03:48:50.032Z,0.75
2022-09-06T03:51:52.926Z,0.50
2022-09-06T03:54:55.492Z,0.80
2022-09-06T03:57:58.398Z,0.80
2022-09-06T04:01:03.711Z,0.50
2022-09-06T04:04:06.700Z,1.00
2022-09-06T04:07:09.332Z,0.50
2022-09-06T04:10:12.515Z,0.57
2022-09-06T04:13:15.092Z,0.40
2022-09-06T04:16:18.779Z,0.50
2022-09-06T04:19:21.769Z,0.60
2022-09-06T04:22:24.935Z,0.30
2022-09-06T04:25:27.573Z,0.60
2022-09-06T04:28:30.678Z,0.50
2022-09-06T04:31:33.476Z,0.88
2022-09-06T04:34:36.450Z,0.80
2022-09-06T04:37:39.243Z,1.08
2022-09-06T04:40:42.244Z,0.60
2022-09-06T04:43:45.127Z,0.52
2022-09-06T04:46:49.089Z,0.65
2022-09-06T04:49:55.794Z,0.62
2022-09-06T04:52:58.989Z,0.60
2022-09-06T04:56:01.820Z,0.70
2022-09-06T04:59:05.810Z,0.65
2022-09-06T05:02:08.495Z,1.10
2022-09-06T05:05:11.526Z,0.80
2022-09-06T05:08:15.039Z,0.68
2022-09-06T05:11:18.590Z,0.87
2022-09-06T05:14:21.904Z,1.00
2022-09-06T05:17:24.843Z,0.70
2022-09-06T05:20:27.502Z,0.68
2022-09-06T05:23:30.435Z,0.95
2022-09-06T05:26:33.083Z,0.53
2022-09-06T05:29:37.313Z,0.95
2022-09-06T05:32:41.331Z,1.10
2022-09-06T05:35:44.247Z,0.98
2022-09-06T05:38:46.885Z,0.60
2022-09-06T05:41:49.886Z,1.17
2022-09-06T05:44:52.583Z,0.90
2022-09-06T05:47:55.729Z,0.70
2022-09-06T05:51:08.397Z,0.80
2022-09-06T05:54:13.848Z,1.37
2022-09-06T05:57:17.024Z,1.53
2022-09-06T06:00:20.021Z,1.25
2022-09-06T06:03:23.004Z,1.48
2022-09-06T06:06:31.836Z,1.12
2022-09-06T06:09:34.734Z,1.20
2022-09-06T06:12:37.580Z,0.97
2022-09-06T06:15:40.505Z,0.95
2022-09-06T06:18:47.689Z,0.90
2022-09-06T06:21:53.532Z,1.02
2022-09-06T06:24:56.238Z,0.73
2022-09-06T06:27:59.276Z,1.47
2022-09-06T06:31:03.204Z,1.40
2022-09-06T06:34:06.991Z,1.10
2022-09-06T06:37:09.700Z,1.95
2022-09-06T06:40:14.010Z,1.27
2022-09-06T06:43:16.784Z,1.13
2022-09-06T06:46:21.790Z,1.48
2022-09-06T06:49:25.310Z,2.00
2022-09-06T06:52:28.392Z,1.58
2022-09-06T06:55:31.160Z,0.85
2022-09-06T06:58:34.378Z,1.53
2022-09-06T07:01:37.811Z,2.00
2022-09-06T07:04:41.073Z,1.20
2022-09-06T07:07:43.754Z,1.30
2022-09-06T07:10:47.094Z,1.73
2022-09-06T07:13:50.084Z,1.07
2022-09-06T07:16:58.264Z,1.55
2022-09-06T07:20:16.510Z,1.37
2022-09-06T07:26:42.462Z,1.20
2022-09-06T07:29:45.863Z,1.63
2022-09-06T07:32:49.052Z,1.20
2022-09-06T07:36:00.491Z,1.70
2022-09-06T07:39:03.618Z,1.40
2022-09-06T07:42:06.860Z,1.48
2022-09-06T07:45:09.812Z,1.43
2022-09-06T07:48:12.756Z,1.80
2022-09-06T07:51:18.032Z,1.45
2022-09-06T07:54:31.050Z,1.58
2022-09-06T07:57:34.101Z,1.70
2022-09-06T08:00:38.621Z,1.97
2022-09-06T08:03:41.736Z,1.10
2022-09-06T08:10:13.178Z,1.25
2022-09-06T08:13:16.585Z,1.58
2022-09-06T08:16:20.266Z,1.43
2022-09-06T08:19:23.159Z,1.37
2022-09-06T08:22:26.100Z,1.73
2022-09-06T08:25:28.765Z,2.47
2022-09-06T08:28:31.794Z,1.67
2022-09-06T08:31:37.212Z,0.97
2022-09-06T08:34:40.175Z,1.60
2022-09-06T08:37:42.894Z,1.62
2022-09-06T08:40:45.998Z,1.92
2022-09-06T08:43:51.111Z,1.77
2022-09-06T08:46:57.552Z,1.77
2022-09-06T08:50:06.879Z,1.92
2022-09-06T08:53:19.939Z,1.65
2022-09-06T08:56:27.329Z,1.77
2022-09-06T08:59:44.123Z,1.70
2022-09-06T09:02:59.831Z,2.10
2022-09-06T09:06:05.637Z,1.10
2022-09-06T09:09:14.347Z,0.95
2022-09-06T09:12:23.579Z,1.52
2022-09-06T09:15:26.243Z,1.48
2022-09-06T09:18:33.586Z,1.13
2022-09-06T09:21:38.937Z,1.77
2022-09-06T09:24:41.915Z,1.92
2022-09-06T09:27:45.802Z,1.80
2022-09-06T09:30:55.704Z,1.62
2022-09-06T09:33:59.374Z,2.20
2022-09-06T09:41:04.448Z,2.03
2022-09-06T09:44:17.787Z,1.48
2022-09-06T09:47:31.530Z,2.58
2022-09-06T09:50:35.546Z,1.97
2022-09-06T09:53:50.710Z,1.67
2022-09-06T09:56:55.733Z,2.15
2022-09-06T10:00:02.898Z,1.33
2022-09-06T10:03:12.526Z,1.70
2022-09-06T10:09:47.010Z,1.75
2022-09-06T10:13:07.597Z,1.02
2022-09-06T10:16:10.902Z,1.65
2022-09-06T10:19:36.455Z,1.85
2022-09-06T10:22:42.106Z,1.47
2022-09-06T10:25:55.654Z,1.77
2022-09-06T10:29:09.767Z,2.10
2022-09-06T10:32:41.773Z,2.30
2022-09-06T10:35:44.416Z,1.83
2022-09-06T10:39:03.511Z,1.87
2022-09-06T10:42:19.890Z,2.10
2022-09-06T10:45:53.870Z,1.70
2022-09-06T10:48:58.121Z,1.62
2022-09-06T10:52:05.339Z,2.03
2022-09-06T10:55:14.018Z,2.33
2022-09-06T10:58:26.867Z,1.33
2022-09-06T11:01:45.762Z,2.00
2022-09-06T11:08:53.509Z,2.97
2022-09-06T11:12:05.929Z,1.77
2022-09-06T11:15:13.260Z,1.80
2022-09-06T11:18:40.832Z,1.85
2022-09-06T11:22:05.195Z,2.20
2022-09-06T11:25:35.290Z,1.95
2022-09-06T11:28:48.016Z,1.97
2022-09-06T11:32:18.645Z,1.95
2022-09-06T11:35:22.796Z,1.92
2022-09-06T11:38:27.300Z,1.50
2022-09-06T11:41:40.074Z,1.60
2022-09-06T11:45:13.064Z,2.47
2022-09-06T11:48:24.638Z,1.65
2022-09-06T11:51:39.777Z,2.28
2022-09-06T11:54:47.354Z,2.35
2022-09-06T11:57:56.320Z,1.85
2022-09-06T12:01:16.067Z,2.60
2022-09-06T12:04:19.007Z,2.15
2022-09-06T12:07:21.760Z,2.35
2022-09-06T12:10:33.537Z,2.40
2022-09-06T12:13:47.549Z,2.58
2022-09-06T12:16:59.470Z,1.83
2022-09-06T12:20:08.006Z,2.28
2022-09-06T12:23:36.457Z,2.50
2022-09-06T12:26:54.477Z,1.60
2022-09-06T12:30:01.928Z,2.08
2022-09-06T12:33:14.146Z,2.30
2022-09-06T12:36:19.536Z,2.22
2022-09-06T12:39:22.810Z,2.25
2022-09-06T12:42:26.624Z,1.67
2022-09-06T12:45:29.516Z,1.98
2022-09-06T12:48:38.585Z,1.87
2022-09-06T12:51:41.881Z,1.85
2022-09-06T12:54:50.050Z,2.03
2022-09-06T12:57:55.458Z,2.10
2022-09-06T13:01:06.134Z,2.12
2022-09-06T13:04:25.094Z,2.30
2022-09-06T13:07:29.185Z,2.10
2022-09-06T13:10:32.320Z,2.72
2022-09-06T13:13:35.427Z,2.17
2022-09-06T13:16:44.364Z,2.12
2022-09-06T13:19:48.449Z,1.90
2022-09-06T13:22:52.437Z,1.50
2022-09-06T13:25:56.307Z,2.30
2022-09-06T13:29:18.448Z,1.87
2022-09-06T13:32:21.476Z,2.05
2022-09-06T13:35:28.760Z,2.77
2022-09-06T13:38:40.250Z,1.87
2022-09-06T13:41:44.208Z,2.17
2022-09-06T13:44:47.116Z,1.70
2022-09-06T13:47:49.876Z,2.17
2022-09-06T13:50:53.115Z,2.20
2022-09-06T13:54:10.570Z,2.08
2022-09-06T13:57:13.509Z,2.60
2022-09-06T14:00:17.359Z,1.95
2022-09-06T14:03:28.420Z,3.53
2022-09-06T14:06:34.786Z,1.97
2022-09-06T14:09:39.776Z,1.92
2022-09-06T14:12:42.522Z,2.65
2022-09-06T14:15:50.644Z,1.95
2022-09-06T14:18:53.626Z,2.22
2022-09-06T14:21:56.763Z,2.63
2022-09-06T14:24:59.582Z,2.22
2022-09-06T14:28:04.291Z,2.17
2022-09-06T14:31:20.753Z,1.85
2022-09-06T14:34:25.880Z,2.22
2022-09-06T14:37:29.012Z,1.57
2022-09-06T14:40:35.324Z,2.87
2022-09-06T14:43:38.110Z,2.10
2022-09-06T14:46:41.383Z,1.83
2022-09-06T14:49:44.140Z,2.28
2022-09-06T14:52:47.319Z,2.20
2022-09-06T14:55:50.584Z,1.90
2022-09-06T14:58:57.422Z,2.20
2022-09-06T15:02:00.442Z,1.83
2022-09-06T15:05:06.580Z,2.30
2022-09-06T15:08:09.752Z,2.00
2022-09-06T15:11:12.856Z,2.17
2022-09-06T15:14:24.721Z,2.08
2022-09-06T15:17:27.724Z,2.33
2022-09-06T15:20:31.280Z,1.60
2022-09-06T15:23:34.324Z,1.33
2022-09-06T15:26:37.154Z,1.87
2022-09-06T15:29:40.195Z,1.95
2022-09-06T15:32:43.275Z,1.80
2022-09-06T15:35:54.945Z,2.25
2022-09-06T15:39:03.643Z,1.70
2022-09-06T15:42:09.371Z,1.98
2022-09-06T15:45:12.148Z,1.40
2022-09-06T15:48:17.296Z,1.70
2022-09-06T15:51:21.406Z,1.40
2022-09-06T15:54:43.405Z,1.70
2022-09-06T15:57:46.843Z,1.80
2022-09-06T16:01:13.669Z,1.75
2022-09-06T16:04:16.705Z,1.83
2022-09-06T16:07:19.638Z,1.87
2022-09-06T16:10:23.004Z,1.73
2022-09-06T16:13:26.036Z,1.65
2022-09-06T16:16:29.543Z,1.20
2022-09-06T16:19:32.294Z,1.60
2022-09-06T16:22:35.295Z,1.60
2022-09-06T16:25:37.969Z,1.47
2022-09-06T16:28:41.696Z,1.27
2022-09-06T16:31:44.781Z,1.80
2022-09-06T16:34:48.266Z,1.95
2022-09-06T16:37:51.028Z,2.30
2022-09-06T16:40:54.080Z,1.97
2022-09-06T16:43:57.160Z,1.90
2022-09-06T16:47:03.963Z,1.23
2022-09-06T16:50:07.009Z,1.52
2022-09-06T16:53:10.163Z,1.87
2022-09-06T16:56:15.658Z,2.43
2022-09-06T16:59:18.992Z,1.95
2022-09-06T17:02:22.345Z,1.58
2022-09-06T17:05:25.966Z,2.05
2022-09-06T17:08:31.274Z,1.83
2022-09-06T17:11:34.305Z,1.50
2022-09-06T17:14:37.118Z,1.60
2022-09-06T17:17:40.437Z,1.73
2022-09-06T17:20:55.364Z,2.00
2022-09-06T17:24:05.145Z,1.70
2022-09-06T17:27:08.519Z,1.80
2022-09-06T17:30:11.832Z,1.75
2022-09-06T17:33:19.075Z,1.70
2022-09-06T17:36:27.875Z,1.73
2022-09-06T17:39:31.113Z,1.37
2022-09-06T17:42:34.240Z,1.60
2022-09-06T17:45:42.681Z,1.02
2022-09-06T17:48:45.935Z,1.23
2022-09-06T17:51:49.619Z,1.85
2022-09-06T17:54:52.804Z,1.60
2022-09-06T17:57:56.748Z,1.30
2022-09-06T18:01:09.547Z,1.35
2022-09-06T18:04:16.285Z,1.27
2022-09-06T18:07:19.071Z,1.87
2022-09-06T18:10:22.285Z,1.52
2022-09-06T18:13:25.196Z,1.47
2022-09-06T18:16:29.291Z,1.37
2022-09-06T18:19:32.268Z,0.82
2022-09-06T18:22:37.107Z,1.40
2022-09-06T18:25:39.821Z,1.02
2022-09-06T18:28:44.544Z,1.93
2022-09-06T18:31:47.748Z,1.67
2022-09-06T18:34:50.823Z,1.00
2022-09-06T18:37:53.496Z,1.52
2022-09-06T18:40:58.642Z,1.35
2022-09-06T18:44:03.285Z,1.70
2022-09-06T18:47:08.614Z,0.62
2022-09-06T18:50:11.356Z,1.40
2022-09-06T18:53:14.889Z,0.88
2022-09-06T18:56:17.615Z,1.27
2022-09-06T18:59:20.712Z,1.97
2022-09-06T19:02:24.802Z,1.70
2022-09-06T19:05:27.922Z,1.73
2022-09-06T19:08:30.680Z,1.60
2022-09-06T19:11:34.829Z,0.90
2022-09-06T19:14:38.240Z,1.53
2022-09-06T19:17:41.899Z,1.80
2022-09-06T19:20:44.573Z,2.00
2022-09-06T19:23:56.264Z,1.50
2022-09-06T19:26:58.996Z,1.58
2022-09-06T19:30:04.480Z,1.10
2022-09-06T19:33:07.983Z,0.98
2022-09-06T19:36:12.342Z,1.58
2022-09-06T19:39:17.339Z,1.27
2022-09-06T19:42:20.354Z,1.30
2022-09-06T19:45:23.418Z,1.30
2022-09-06T19:48:28.583Z,1.60
2022-09-06T19:51:33.121Z,1.05
2022-09-06T19:54:37.468Z,1.20
2022-09-06T19:57:40.123Z,1.08
2022-09-06T20:00:43.331Z,1.30
2022-09-06T20:03:46.456Z,1.35
2022-09-06T20:06:49.124Z,0.82
2022-09-06T20:09:52.694Z,1.00
2022-09-06T20:12:55.472Z,1.45
2022-09-06T20:15:58.917Z,1.50
2022-09-06T20:19:01.717Z,1.33
2022-09-06T20:22:04.829Z,1.10
2022-09-06T20:25:08.738Z,1.90
2022-09-06T20:28:11.871Z,1.60
2022-09-06T20:31:18.777Z,1.63
2022-09-06T20:34:21.897Z,2.17
2022-09-06T20:37:24.635Z,1.58
2022-09-06T20:40:27.705Z,2.00
2022-09-06T20:43:34.390Z,1.60
2022-09-06T20:46:37.611Z,1.43
2022-09-06T20:49:40.361Z,0.98
2022-09-06T20:52:43.421Z,2.08
2022-09-06T20:55:55.741Z,0.95
2022-09-06T20:59:01.225Z,1.62
2022-09-06T21:02:04.120Z,0.67
2022-09-06T21:05:07.460Z,0.98
2022-09-06T21:08:10.499Z,2.35
2022-09-06T21:11:13.839Z,1.52
2022-09-06T21:14:16.882Z,1.60
2022-09-06T21:17:19.951Z,1.50
2022-09-06T21:20:23.081Z,1.27
2022-09-06T21:23:28.044Z,1.37
2022-09-06T21:26:31.064Z,1.55
2022-09-06T21:29:34.095Z,1.42
2022-09-06T21:32:36.820Z,1.93
2022-09-06T21:35:39.875Z,1.62
2022-09-06T21:38:45.788Z,1.05
2022-09-06T21:41:48.937Z,1.27
2022-09-06T21:44:51.995Z,0.90
2022-09-06T21:47:55.092Z,1.10
2022-09-06T21:50:58.150Z,1.12
2022-09-06T21:54:05.048Z,1.30
2022-09-06T21:57:07.746Z,0.88
2022-09-06T22:00:11.481Z,1.10
2022-09-06T22:03:15.218Z,1.33
2022-09-06T22:06:24.845Z,1.50
2022-09-06T22:09:27.865Z,1.17
2022-09-06T22:12:30.601Z,1.83
2022-09-06T22:15:37.877Z,1.12
2022-09-06T22:18:40.939Z,1.33
2022-09-06T22:21:43.989Z,1.25
2022-09-06T22:24:46.720Z,1.42
2022-09-06T22:27:49.973Z,1.10
2022-09-06T22:30:52.720Z,1.00
2022-09-06T22:33:56.519Z,1.20
2022-09-06T22:36:59.643Z,1.23
2022-09-06T22:40:02.956Z,1.40
2022-09-06T22:43:06.069Z,1.15
2022-09-06T22:46:11.122Z,1.30
2022-09-06T22:49:13.904Z,1.03
2022-09-06T22:52:17.003Z,0.70
2022-09-06T22:55:19.648Z,1.00
2022-09-06T22:58:30.037Z,1.05
2022-09-06T23:01:38.797Z,0.82
2022-09-06T23:04:41.828Z,1.00
2022-09-06T23:07:44.584Z,1.02
2022-09-06T23:10:47.863Z,1.27
2022-09-06T23:13:55.820Z,1.08
2022-09-06T23:16:58.811Z,0.90
2022-09-06T23:20:01.719Z,0.87
2022-09-06T23:23:05.611Z,0.88
2022-09-06T23:26:30.054Z,1.02
2022-09-06T23:29:34.496Z,0.88
2022-09-06T23:32:37.571Z,1.08
2022-09-06T23:35:40.700Z,0.80
2022-09-06T23:38:43.906Z,1.05
2022-09-06T23:41:47.019Z,1.65
2022-09-06T23:44:54.471Z,1.20
2022-09-06T23:47:57.442Z,1.30
2022-09-06T23:51:00.768Z,1.17
2022-09-06T23:54:04.353Z,0.80
2022-09-06T23:57:07.009Z,1.42
